Time;durP1;ratioP1;P1;durP2;ratioP2;P2;SDS_P1;SDS_P2;PMS_P1;PMS_P2;Temp;Humidity;BMP_temperature;BMP_pressure;BME280_temperature;BME280_humidity;BME280_pressure;Samples;Min_cycle;Max_cycle;Signal;HPM_P1;HPM_P2
2022/11/20 00:01:05;;;;;;;;;;;;;;;13.16;97.14;99166.00;5096642;28;20049;-83
2022/11/20 00:03:30;;;;;;;;;;;;;;;12.95;99.14;99166.72;5115428;28;20351;-83
2022/11/20 00:05:59;;;;;;;;;;;;;;;13.26;98.63;99166.53;5115572;28;19912;-83
2022/11/20 00:08:24;;;;;;;;;;;;;;;13.61;96.61;99169.78;5115157;28;20284;-84
2022/11/20 00:10:50;;;;;;;;;;;;;;;13.41;94.97;99179.28;5115610;28;19951;-84
2022/11/20 00:13:15;;;;;;;;;;;;;;;13.16;97.06;99162.47;5113990;28;20002;-84
2022/11/20 00:15:40;;;;;;;;;;;;;;;13.32;97.50;99155.72;5114941;28;19954;-84
2022/11/20 00:18:06;;;;;;;;;;;;;;;13.58;94.98;99170.75;5114765;28;19918;-84
2022/11/20 00:20:31;;;;;;;;;;;;;;;13.42;96.19;99174.84;5114991;28;20021;-84
2022/11/20 00:22:56;;;;;;;;;;;;;;;13.42;96.11;99164.25;5114817;28;20382;-83
2022/11/20 00:25:21;;;;;;;;;;;;;;;13.55;95.70;99154.94;5114873;28;19911;-83
2022/11/20 00:27:47;;;;;;;;;;;;;;;13.65;93.50;99160.78;5115398;28;19916;-82
2022/11/20 00:33:15;;;;;;;;;;;;;;;13.51;92.50;99139.22;5114900;28;19915;-82
2022/11/20 00:35:40;;;;;;;;;;;;;;;13.46;92.28;99144.69;5114393;28;19912;-83
2022/11/20 00:38:05;;;;;;;;;;;;;;;13.26;94.34;99169.19;5114641;28;19912;-82
2022/11/20 00:40:31;;;;;;;;;;;;;;;13.28;96.07;99156.75;5114666;28;19961;-83
2022/11/20 00:42:56;;;;;;;;;;;;;;;13.30;95.50;99146.97;5114705;28;19935;-83
2022/11/20 00:45:21;;;;;;;;;;;;;;;13.59;95.00;99150.38;5114936;28;19978;-83
2022/11/20 00:47:47;;;;;;;;;;;;;;;13.61;93.72;99153.88;5114324;28;19911;-83
2022/11/20 00:50:12;;;;;;;;;;;;;;;13.49;96.28;99146.38;5114444;28;19916;-84
2022/11/20 00:52:37;;;;;;;;;;;;;;;13.70;95.44;99147.34;5114735;28;19919;-84
2022/11/20 00:55:03;;;;;;;;;;;;;;;13.56;97.08;99166.41;5114387;28;19916;-84
2022/11/20 00:57:28;;;;;;;;;;;;;;;13.84;93.93;99168.06;5113988;28;20280;-84
2022/11/20 00:59:53;;;;;;;;;;;;;;;13.67;93.61;99158.94;5113997;28;19911;-83
2022/11/20 01:02:19;;;;;;;;;;;;;;;13.63;94.79;99157.31;5113842;28;19911;-84
2022/11/20 01:07:47;;;;;;;;;;;;;;;13.60;96.14;99163.59;5114436;28;19930;-83
2022/11/20 01:10:12;;;;;;;;;;;;;;;13.78;94.86;99182.41;5114034;28;20376;-83
2022/11/20 01:12:37;;;;;;;;;;;;;;;13.78;92.90;99174.47;5114517;28;19911;-84
2022/11/20 01:15:03;;;;;;;;;;;;;;;13.20;95.05;99158.78;5113741;28;20402;-84
2022/11/20 01:17:28;;;;;;;;;;;;;;;13.30;96.28;99157.56;5113828;28;19920;-84
2022/11/20 01:19:53;;;;;;;;;;;;;;;13.02;98.86;99149.69;5114127;28;19912;-84
2022/11/20 01:22:19;;;;;;;;;;;;;;;13.43;97.42;99156.25;5112571;28;19912;-84
2022/11/20 01:24:44;;;;;;;;;;;;;;;13.64;96.21;99163.47;5113136;28;19912;-84
2022/11/20 01:27:09;;;;;;;;;;;;;;;13.83;95.05;99158.41;5112071;28;19912;-84
2022/11/20 01:29:34;;;;;;;;;;;;;;;13.60;94.82;99149.47;5113527;28;19912;-84
2022/11/20 01:32:00;;;;;;;;;;;;;;;13.86;93.80;99137.06;5113286;28;20001;-84
2022/11/20 01:34:25;;;;;;;;;;;;;;;13.99;93.48;99132.16;5095298;28;19912;-84
2022/11/20 01:36:51;;;;;;;;;;;;;;;13.98;92.52;99139.25;5113565;28;19912;-84
2022/11/20 01:39:18;;;;;;;;;;;;;;;13.97;92.48;99138.38;5113866;28;19969;-84
2022/11/20 01:45:01;;;;;;;;;;;;;;;13.95;91.83;99118.16;5113122;28;20312;-83
2022/11/20 01:47:29;;;;;;;;;;;;;;;13.84;91.21;99115.03;5068108;28;19912;-83
2022/11/20 01:50:12;;;;;;;;;;;;;;;13.45;92.87;99111.16;5113356;28;20534;-84
2022/11/20 01:52:41;;;;;;;;;;;;;;;13.86;91.04;99105.25;5113407;28;19998;-83
2022/11/20 01:55:08;;;;;;;;;;;;;;;13.79;90.25;99112.56;5113325;28;20373;-83
2022/11/20 01:57:35;;;;;;;;;;;;;;;13.79;90.79;99121.38;5113281;28;19912;-84
2022/11/20 02:00:08;;;;;;;;;;;;;;;13.73;90.71;99100.41;5113154;28;19908;-84
2022/11/20 02:02:34;;;;;;;;;;;;;;;13.66;89.92;99114.81;5112458;28;20033;-84
2022/11/20 02:05:02;;;;;;;;;;;;;;;13.47;91.68;99113.72;5112965;28;19955;-84
2022/11/20 02:10:31;;;;;;;;;;;;;;;13.35;92.47;99105.31;5113477;28;19933;-84
2022/11/20 02:15:41;;;;;;;;;;;;;;;13.45;92.08;99081.16;5113139;28;20342;-84
2022/11/20 02:18:07;;;;;;;;;;;;;;;13.41;92.30;99091.84;5112579;28;19907;-84
2022/11/20 02:20:33;;;;;;;;;;;;;;;13.19;93.78;99106.75;5113361;28;19927;-84
2022/11/20 02:23:04;;;;;;;;;;;;;;;13.26;92.82;99101.16;5113249;28;19912;-84
2022/11/20 02:25:32;;;;;;;;;;;;;;;13.42;91.74;99101.53;5112908;28;19912;-83
2022/11/20 02:27:57;;;;;;;;;;;;;;;13.01;94.82;99084.44;5113408;28;19912;-83
2022/11/20 02:33:25;;;;;;;;;;;;;;;13.28;94.73;99068.47;5113221;28;20407;-83
2022/11/20 02:35:50;;;;;;;;;;;;;;;13.34;94.85;99070.94;5113065;28;19912;-84
2022/11/20 02:38:16;;;;;;;;;;;;;;;13.45;93.25;99075.84;5117242;28;19919;-84
2022/11/20 02:40:41;;;;;;;;;;;;;;;13.18;95.72;99074.09;5117344;28;19919;-84
2022/11/20 02:46:09;;;;;;;;;;;;;;;13.11;97.68;99092.91;5116980;28;19960;-83
2022/11/20 02:51:37;;;;;;;;;;;;;;;13.44;96.04;99067.03;5116856;28;20288;-83
2022/11/20 02:54:03;;;;;;;;;;;;;;;13.65;94.35;99069.81;5116737;28;19916;-84
2022/11/20 02:56:28;;;;;;;;;;;;;;;13.57;93.75;99080.69;5116997;28;19912;-84
2022/11/20 02:58:54;;;;;;;;;;;;;;;13.69;93.81;99079.38;5116557;28;19912;-84
2022/11/20 03:01:19;;;;;;;;;;;;;;;13.67;94.59;99070.59;5116240;28;19915;-84
2022/11/20 03:03:44;;;;;;;;;;;;;;;13.67;94.24;99062.66;5116767;28;19965;-84
2022/11/20 03:06:09;;;;;;;;;;;;;;;13.68;94.08;99056.44;5115132;28;20372;-84
2022/11/20 03:08:35;;;;;;;;;;;;;;;13.55;93.96;99067.50;5116565;28;19919;-84
2022/11/20 03:11:07;;;;;;;;;;;;;;;13.42;96.05;99056.50;5116291;28;20007;-84
2022/11/20 03:13:32;;;;;;;;;;;;;;;13.85;93.97;99053.16;5116423;28;20024;-84
2022/11/20 03:19:00;;;;;;;;;;;;;;;13.71;95.39;99058.97;5116329;28;19915;-83
2022/11/20 03:21:25;;;;;;;;;;;;;;;13.79;95.35;99035.69;5115698;28;19911;-83
2022/11/20 03:23:51;;;;;;;;;;;;;;;13.75;95.63;99045.56;5116844;28;19960;-83
2022/11/20 03:26:20;;;;;;;;;;;;;;;13.96;93.81;99073.03;5115962;28;19907;-83
2022/11/20 03:31:47;;;;;;;;;;;;;;;13.34;98.08;99055.03;5116077;28;19915;-83
2022/11/20 03:34:13;;;;;;;;;;;;;;;13.18;99.95;99060.88;5115677;28;19912;-84
2022/11/20 03:36:39;;;;;;;;;;;;;;;13.55;98.89;99062.19;5116227;28;19916;-84
2022/11/20 03:39:04;;;;;;;;;;;;;;;13.83;97.99;99058.50;5115666;28;19912;-84
2022/11/20 03:41:30;;;;;;;;;;;;;;;13.91;95.89;99071.47;5115831;28;20002;-85
2022/11/20 03:43:57;;;;;;;;;;;;;;;13.95;94.52;99060.69;5116111;28;19915;-84
2022/11/20 03:46:23;;;;;;;;;;;;;;;14.06;93.26;99052.31;5115643;28;19919;-84
2022/11/20 03:48:48;;;;;;;;;;;;;;;14.13;92.78;99052.91;5115210;28;19912;-85
2022/11/20 03:51:18;;;;;;;;;;;;;;;14.25;91.11;99054.22;5115381;28;19918;-84
2022/11/20 03:53:45;;;;;;;;;;;;;;;14.15;92.09;99056.41;5115242;28;20458;-84
2022/11/20 03:56:11;;;;;;;;;;;;;;;14.08;92.05;99058.41;5115450;28;19912;-85
2022/11/20 03:58:39;;;;;;;;;;;;;;;13.89;92.21;99055.63;5115182;28;20023;-84
2022/11/20 04:01:11;;;;;;;;;;;;;;;13.81;93.33;99051.53;5115216;28;19968;-84
2022/11/20 04:03:37;;;;;;;;;;;;;;;13.85;92.24;99043.41;5115866;28;19916;-84
2022/11/20 04:06:07;;;;;;;;;;;;;;;13.87;92.66;99046.88;5115136;28;19965;-84
2022/11/20 04:08:33;;;;;;;;;;;;;;;13.50;94.25;99052.69;5114944;28;19912;-85
2022/11/20 04:11:27;;;;;;;;;;;;;;;13.63;95.02;99069.00;5115149;28;19912;-84
2022/11/20 04:13:54;;;;;;;;;;;;;;;13.74;93.43;99065.00;5097112;28;20361;-84
2022/11/20 04:16:19;;;;;;;;;;;;;;;13.73;95.41;99062.41;5115082;28;20022;-85
2022/11/20 04:21:47;;;;;;;;;;;;;;;14.11;93.18;99068.03;5115062;28;20288;-85
2022/11/20 04:24:12;;;;;;;;;;;;;;;14.00;92.20;99060.50;5114695;28;19995;-84
2022/11/20 04:26:38;;;;;;;;;;;;;;;13.96;92.25;99062.44;5113843;28;20004;-85
2022/11/20 04:32:06;;;;;;;;;;;;;;;14.04;91.47;99055.94;5114911;28;20425;-84
2022/11/20 04:34:31;;;;;;;;;;;;;;;14.03;90.81;99062.19;5114584;28;19913;-84
2022/11/20 04:36:57;;;;;;;;;;;;;;;13.78;90.10;99060.47;5114930;28;19912;-84
2022/11/20 04:39:22;;;;;;;;;;;;;;;13.68;90.96;99067.03;5114900;28;19998;-85
2022/11/20 04:41:47;;;;;;;;;;;;;;;13.57;91.12;99064.78;5113180;28;20010;-86
2022/11/20 04:44:12;;;;;;;;;;;;;;;13.61;90.85;99058.47;5114662;28;19922;-85
2022/11/20 04:46:40;;;;;;;;;;;;;;;13.76;90.26;99067.59;5114376;28;19923;-84
2022/11/20 04:49:06;;;;;;;;;;;;;;;13.73;89.76;99063.31;5114321;28;19994;-84
2022/11/20 04:51:31;;;;;;;;;;;;;;;13.65;89.95;99075.09;5115092;28;20006;-84
2022/11/20 04:56:59;;;;;;;;;;;;;;;13.20;91.38;99090.78;5114697;28;19919;-84
2022/11/20 04:59:24;;;;;;;;;;;;;;;13.18;93.92;99068.81;5113356;28;19908;-84
2022/11/20 05:01:49;;;;;;;;;;;;;;;13.41;92.46;99067.16;5114341;28;20432;-84
2022/11/20 05:04:15;;;;;;;;;;;;;;;13.40;92.06;99076.88;5114496;28;20369;-84
2022/11/20 05:09:42;;;;;;;;;;;;;;;13.30;90.35;99077.22;5114750;28;19919;-83
2022/11/20 05:12:08;;;;;;;;;;;;;;;13.33;90.18;99074.47;5112557;28;19912;-83
2022/11/20 05:14:34;;;;;;;;;;;;;;;13.36;89.76;99077.91;5114232;28;19969;-83
2022/11/20 05:16:59;;;;;;;;;;;;;;;13.07;90.43;99085.06;5114387;28;20074;-83
2022/11/20 05:19:24;;;;;;;;;;;;;;;13.27;90.69;99096.75;5113604;28;20351;-83
2022/11/20 05:21:50;;;;;;;;;;;;;;;13.16;90.73;99102.44;5114125;28;19918;-83
2022/11/20 05:24:15;;;;;;;;;;;;;;;13.05;90.95;99092.22;5114018;28;20344;-83
2022/11/20 05:26:40;;;;;;;;;;;;;;;13.15;89.15;99098.03;5113820;28;19912;-83
2022/11/20 05:29:06;;;;;;;;;;;;;;;12.93;89.88;99087.34;5113538;28;19919;-84
2022/11/20 05:31:31;;;;;;;;;;;;;;;13.07;91.20;99076.28;5113658;28;19916;-84
2022/11/20 05:33:56;;;;;;;;;;;;;;;13.06;91.51;99067.44;5113794;28;19919;-84
2022/11/20 05:36:22;;;;;;;;;;;;;;;12.96;91.06;99089.88;5113679;28;19918;-83
2022/11/20 05:38:47;;;;;;;;;;;;;;;12.85;92.86;99084.06;5113503;28;20009;-83
2022/11/20 05:41:14;;;;;;;;;;;;;;;13.23;93.85;99076.59;5113267;28;19916;-84
2022/11/20 05:43:40;;;;;;;;;;;;;;;13.49;92.60;99080.13;5113461;28;19912;-84
2022/11/20 05:46:06;;;;;;;;;;;;;;;13.53;93.00;99084.38;5113770;28;20008;-83
2022/11/20 05:51:34;;;;;;;;;;;;;;;13.21;93.85;99089.03;5113443;28;20288;-84
2022/11/20 05:53:59;;;;;;;;;;;;;;;13.13;93.49;99094.59;5113161;28;19907;-84
2022/11/20 05:56:25;;;;;;;;;;;;;;;13.02;94.62;99104.69;5111973;28;19911;-84
2022/11/20 05:58:50;;;;;;;;;;;;;;;12.99;96.00;99092.44;5113101;28;19915;-84
2022/11/20 06:01:18;;;;;;;;;;;;;;;13.41;93.93;99088.34;5124282;27;19915;-82
2022/11/20 06:03:45;;;;;;;;;;;;;;;13.51;93.10;99104.78;5133941;27;19923;-82
2022/11/20 06:06:11;;;;;;;;;;;;;;;13.60;92.41;99109.72;5123806;27;20361;-82
2022/11/20 06:11:39;;;;;;;;;;;;;;;13.48;93.17;99121.63;5117546;28;19918;-82
2022/11/20 06:14:05;;;;;;;;;;;;;;;13.73;92.11;99115.44;5112627;28;19912;-83
2022/11/20 06:16:30;;;;;;;;;;;;;;;13.63;91.97;99116.72;5114441;27;20274;-83
2022/11/20 06:18:56;;;;;;;;;;;;;;;13.58;92.41;99114.22;5115106;28;19918;-83
2022/11/20 06:24:25;;;;;;;;;;;;;;;13.22;93.13;99109.28;5131139;28;19984;-83
2022/11/20 06:26:50;;;;;;;;;;;;;;;13.20;92.42;99105.84;5125996;28;20356;-84
2022/11/20 06:29:15;;;;;;;;;;;;;;;13.00;93.05;99125.91;5116880;28;19918;-83
2022/11/20 06:37:48;;;;;;;;;;;;;;;13.79;96.61;99124.03;5114222;28;19961;-84
2022/11/20 06:43:16;;;;;;;;;;;;;;;13.60;95.82;99113.22;5131849;28;19919;-83
2022/11/20 06:45:42;;;;;;;;;;;;;;;13.79;95.82;99123.16;5130744;28;20389;-82
2022/11/20 06:48:07;;;;;;;;;;;;;;;13.99;96.30;99127.72;5133505;28;19918;-84
2022/11/20 06:50:32;;;;;;;;;;;;;;;14.30;95.24;99142.44;5133262;28;19919;-83
2022/11/20 06:53:00;;;;;;;;;;;;;;;14.41;93.29;99145.56;5133169;28;20357;-83
2022/11/20 06:55:25;;;;;;;;;;;;;;;14.32;93.21;99130.00;5132898;28;19987;-83
2022/11/20 06:57:51;;;;;;;;;;;;;;;14.42;93.10;99136.66;5131019;28;19994;-84
2022/11/20 07:00:16;;;;;;;;;;;;;;;14.49;93.20;99139.94;5133132;28;19915;-85
2022/11/20 07:02:41;;;;;;;;;;;;;;;14.63;91.40;99139.44;5133172;28;19922;-83
2022/11/20 07:08:09;;;;;;;;;;;;;;;14.39;93.81;99136.78;5133154;28;19914;-84
2022/11/20 07:10:35;;;;;;;;;;;;;;;14.45;93.77;99144.50;5133298;28;19911;-84
2022/11/20 07:13:00;;;;;;;;;;;;;;;14.42;92.93;99143.75;5114626;28;20353;-84
2022/11/20 07:15:26;;;;;;;;;;;;;;;14.54;93.31;99148.59;5133261;28;19915;-84
2022/11/20 07:17:51;;;;;;;;;;;;;;;14.77;91.61;99153.00;5131523;28;19911;-84
2022/11/20 07:20:17;;;;;;;;;;;;;;;14.70;91.78;99138.22;5132754;28;20285;-83
2022/11/20 07:22:42;;;;;;;;;;;;;;;14.75;91.05;99140.69;5134907;27;19923;-84
2022/11/20 07:25:08;;;;;;;;;;;;;;;14.31;92.93;99142.38;5136487;27;20416;-84
2022/11/20 07:27:34;;;;;;;;;;;;;;;14.39;93.47;99139.44;5136660;27;19938;-83
2022/11/20 07:29:59;;;;;;;;;;;;;;;14.60;92.87;99139.53;5136923;27;19919;-84
2022/11/20 07:35:27;;;;;;;;;;;;;;;14.82;91.40;99148.34;5136617;27;20339;-84
2022/11/20 07:37:52;;;;;;;;;;;;;;;14.75;91.62;99159.28;5136171;27;19915;-84
2022/11/20 07:40:18;;;;;;;;;;;;;;;14.71;92.56;99150.59;5136620;27;20333;-82
2022/11/20 07:42:53;;;;;;;;;;;;;;;14.76;92.59;99151.25;5136289;27;19912;-83
2022/11/20 07:45:19;;;;;;;;;;;;;;;15.08;91.45;99148.22;5118238;27;20117;-83
2022/11/20 07:47:45;;;;;;;;;;;;;;;15.10;91.55;99162.28;5136123;27;19911;-83
2022/11/20 07:50:11;;;;;;;;;;;;;;;15.19;90.50;99151.28;5136022;27;20433;-83
2022/11/20 07:52:36;;;;;;;;;;;;;;;15.19;90.39;99159.25;5136008;27;19911;-84
2022/11/20 07:55:01;;;;;;;;;;;;;;;15.27;89.62;99161.56;5136551;27;19960;-84
2022/11/20 07:57:27;;;;;;;;;;;;;;;15.44;88.97;99147.56;5135818;27;19911;-84
2022/11/20 07:59:52;;;;;;;;;;;;;;;15.39;89.09;99145.09;5136568;27;19966;-84
2022/11/20 08:02:17;;;;;;;;;;;;;;;15.18;90.10;99157.50;5135883;27;20010;-84
2022/11/20 08:04:43;;;;;;;;;;;;;;;14.96;90.62;99154.91;5135699;27;20052;-84
2022/11/20 08:07:08;;;;;;;;;;;;;;;15.16;90.51;99149.59;5135952;27;20349;-84
2022/11/20 08:09:33;;;;;;;;;;;;;;;15.40;89.12;99146.84;5135751;27;19918;-83
2022/11/20 08:14:42;;;;;;;;;;;;;;;15.30;89.76;99161.44;5135639;27;19965;-83
2022/11/20 08:17:08;;;;;;;;;;;;;;;15.61;88.02;99165.44;5135625;27;19964;-84
2022/11/20 08:19:33;;;;;;;;;;;;;;;15.80;86.13;99158.41;5135997;27;19964;-84
2022/11/20 08:21:58;;;;;;;;;;;;;;;15.81;86.27;99148.63;5135345;27;20387;-83
2022/11/20 08:24:26;;;;;;;;;;;;;;;16.03;85.12;99143.16;5135344;27;19926;-84
2022/11/20 08:26:51;;;;;;;;;;;;;;;16.04;85.61;99139.59;5135447;27;19915;-82
2022/11/20 08:29:17;;;;;;;;;;;;;;;15.91;87.85;99149.91;5135550;27;19961;-82
2022/11/20 08:31:42;;;;;;;;;;;;;;;16.06;87.54;99143.03;5135318;27;19915;-82
2022/11/20 08:34:08;;;;;;;;;;;;;;;16.12;86.84;99142.75;5134559;27;19911;-82
2022/11/20 08:36:34;;;;;;;;;;;;;;;16.32;87.20;99127.66;5133327;27;20296;-82
2022/11/20 08:38:59;;;;;;;;;;;;;;;16.32;87.28;99117.84;5135358;27;19912;-82
2022/11/20 08:41:27;;;;;;;;;;;;;;;16.61;86.65;99132.41;5134840;27;19912;-82
2022/11/20 08:43:54;;;;;;;;;;;;;;;16.88;88.19;99129.34;5135616;27;19965;-82
2022/11/20 08:46:20;;;;;;;;;;;;;;;17.30;86.02;99117.47;5133246;27;20010;-81
2022/11/20 08:48:45;;;;;;;;;;;;;;;17.76;82.72;99122.16;5135195;27;20011;-82
2022/11/20 08:51:11;;;;;;;;;;;;;;;17.98;80.16;99110.38;5135323;27;19911;-82
2022/11/20 08:56:46;;;;;;;;;;;;;;;18.65;75.78;99121.75;5135276;27;20019;-82
2022/11/20 08:59:11;;;;;;;;;;;;;;;18.77;76.51;99118.38;5134577;27;19954;-83
2022/11/20 09:01:36;;;;;;;;;;;;;;;19.03;76.08;99118.69;5116650;27;19915;-83
2022/11/20 09:04:03;;;;;;;;;;;;;;;19.07;73.19;99120.22;5135126;27;20013;-84
2022/11/20 09:06:28;;;;;;;;;;;;;;;19.42;71.80;99127.94;5134946;27;19911;-84
2022/11/20 09:08:54;;;;;;;;;;;;;;;19.29;71.77;99117.16;5135364;27;19919;-83
2022/11/20 09:11:19;;;;;;;;;;;;;;;19.61;69.47;99108.94;5134810;27;19911;-83
2022/11/20 09:13:45;;;;;;;;;;;;;;;19.68;70.75;99104.94;5134676;27;19968;-84
2022/11/20 09:16:10;;;;;;;;;;;;;;;19.91;70.59;99101.81;5134287;27;19918;-83
2022/11/20 09:18:37;;;;;;;;;;;;;;;20.30;69.10;99089.53;5134378;27;19919;-83
2022/11/20 09:21:04;;;;;;;;;;;;;;;20.11;69.24;99089.84;5134511;27;20002;-84
2022/11/20 09:23:34;;;;;;;;;;;;;;;20.18;69.10;99091.19;5135013;27;19917;-85
2022/11/20 09:26:06;;;;;;;;;;;;;;;20.38;68.07;99069.31;5134216;27;20017;-84
2022/11/20 09:28:32;;;;;;;;;;;;;;;20.64;66.74;99074.78;5134169;27;19912;-84
2022/11/20 09:30:57;;;;;;;;;;;;;;;20.67;66.23;99058.53;5134212;27;20003;-83
2022/11/20 09:33:23;;;;;;;;;;;;;;;20.93;65.13;99063.97;5134343;27;19942;-81
2022/11/20 09:35:48;;;;;;;;;;;;;;;20.95;64.24;99050.47;5132683;27;19911;-84
2022/11/20 09:38:14;;;;;;;;;;;;;;;21.27;63.53;99053.56;5134248;27;19918;-83
2022/11/20 09:40:51;;;;;;;;;;;;;;;21.63;63.87;99060.06;5134137;27;19925;-83
2022/11/20 09:43:19;;;;;;;;;;;;;;;21.49;64.37;99052.06;5134493;27;19954;-83
2022/11/20 09:45:50;;;;;;;;;;;;;;;21.62;62.97;99061.88;5133665;27;20428;-83
2022/11/20 09:48:16;;;;;;;;;;;;;;;22.06;60.84;99045.38;5134262;27;19918;-84
2022/11/20 09:50:58;;;;;;;;;;;;;;;22.35;60.06;99046.81;5134227;27;20002;-84
2022/11/20 09:53:23;;;;;;;;;;;;;;;22.40;58.95;99046.47;5133652;27;19915;-83
2022/11/20 09:55:48;;;;;;;;;;;;;;;22.57;60.18;99042.53;5134016;27;20386;-83
2022/11/20 09:58:34;;;;;;;;;;;;;;;22.93;62.02;99034.47;5133967;27;20296;-84
2022/11/20 10:01:03;;;;;;;;;;;;;;;22.95;57.61;99035.19;5133710;27;19958;-82
2022/11/20 10:06:41;;;;;;;;;;;;;;;23.41;58.01;99015.50;5133767;27;20361;-81
2022/11/20 10:09:12;;;;;;;;;;;;;;;23.49;56.19;99013.06;5133647;27;19911;-81
2022/11/20 10:11:43;;;;;;;;;;;;;;;23.71;56.99;99014.91;5133832;27;19919;-81
2022/11/20 10:14:11;;;;;;;;;;;;;;;23.84;55.72;99019.31;5133604;27;19918;-81
2022/11/20 10:16:42;;;;;;;;;;;;;;;23.95;57.21;99019.31;5133363;27;19959;-81
2022/11/20 10:19:26;;;;;;;;;;;;;;;24.15;54.87;99019.53;5132010;27;19912;-80
2022/11/20 10:22:04;;;;;;;;;;;;;;;24.18;54.26;99019.28;5135194;27;19912;-80
2022/11/20 10:24:41;;;;;;;;;;;;;;;24.07;53.30;99020.16;5133626;28;19916;-80
2022/11/20 10:27:13;;;;;;;;;;;;;;;23.92;54.65;99012.34;5133717;28;19911;-80
2022/11/20 10:32:42;;;;;;;;;;;;;;;23.77;55.28;98995.56;5133570;28;19914;-80
2022/11/20 10:35:19;;;;;;;;;;;;;;;23.86;54.13;98985.91;5132949;28;19918;-80
2022/11/20 10:37:46;;;;;;;;;;;;;;;23.74;53.61;98984.16;5133403;28;19960;-80
2022/11/20 10:43:14;;;;;;;;;;;;;;;23.81;54.19;98979.16;5133371;28;19917;-79
2022/11/20 10:45:57;;;;;;;;;;;;;;;23.95;53.46;98974.38;5133590;28;19998;-80
2022/11/20 10:48:25;;;;;;;;;;;;;;;23.88;54.05;98970.50;5133351;28;20010;-79
2022/11/20 10:51:07;;;;;;;;;;;;;;;23.88;54.02;98959.72;5132803;28;19907;-81
2022/11/20 10:53:39;;;;;;;;;;;;;;;23.77;50.79;98968.66;5133069;28;19972;-81
2022/11/20 10:56:24;;;;;;;;;;;;;;;23.84;48.22;98963.63;5132944;27;19908;-81
2022/11/20 10:58:56;;;;;;;;;;;;;;;23.82;49.83;98965.56;5136279;27;19932;-81
2022/11/20 11:01:23;;;;;;;;;;;;;;;23.69;49.23;98960.31;5136974;27;20018;-81
2022/11/20 11:03:48;;;;;;;;;;;;;;;23.58;48.63;98949.56;5137386;27;19922;-79
2022/11/20 11:06:32;;;;;;;;;;;;;;;23.64;48.17;98954.47;5136999;27;19911;-80
2022/11/20 11:09:00;;;;;;;;;;;;;;;23.67;46.00;98953.38;5137297;27;19979;-80
2022/11/20 11:11:28;;;;;;;;;;;;;;;23.71;46.39;98947.59;5133643;27;20289;-80
2022/11/20 11:14:03;;;;;;;;;;;;;;;23.52;46.68;98939.31;5136654;27;20414;-81
2022/11/20 11:16:29;;;;;;;;;;;;;;;23.31;47.05;98923.91;5137228;27;19961;-81
2022/11/20 11:19:04;;;;;;;;;;;;;;;23.21;46.32;98917.53;5136744;27;19915;-84
2022/11/20 11:21:29;;;;;;;;;;;;;;;23.41;45.21;98918.63;5135568;27;19918;-84
2022/11/20 11:24:03;;;;;;;;;;;;;;;23.74;45.44;98923.13;5136667;27;19915;-83
2022/11/20 11:26:28;;;;;;;;;;;;;;;23.87;45.79;98920.31;5136821;27;19912;-82
2022/11/20 11:28:57;;;;;;;;;;;;;;;23.82;46.51;98925.19;5137271;27;19959;-82
2022/11/20 11:34:26;;;;;;;;;;;;;;;23.87;46.79;98917.59;5136614;27;20002;-84
2022/11/20 11:36:59;;;;;;;;;;;;;;;24.00;46.13;98912.06;5136553;27;19912;-82
2022/11/20 11:39:26;;;;;;;;;;;;;;;23.92;46.65;98923.47;5136671;27;19911;-84
2022/11/20 11:41:51;;;;;;;;;;;;;;;23.90;46.90;98909.28;5136574;27;20361;-84
2022/11/20 11:47:06;;;;;;;;;;;;;;;23.50;48.25;98911.66;5136092;27;20354;-84
2022/11/20 11:49:31;;;;;;;;;;;;;;;23.59;50.58;98924.38;5136261;27;19960;-84
2022/11/20 11:52:01;;;;;;;;;;;;;;;23.40;53.12;98911.53;5136203;27;20288;-84
2022/11/20 11:54:41;;;;;;;;;;;;;;;23.55;47.63;98901.38;5135966;27;19919;-83
2022/11/20 11:57:19;;;;;;;;;;;;;;;23.46;49.23;98904.81;5136617;27;19960;-87
2022/11/20 12:03:04;;;;;;;;;;;;;;;23.31;48.84;98910.47;5135920;27;19964;-83
2022/11/20 12:08:41;;;;;;;;;;;;;;;22.75;53.85;98896.94;5136235;27;20002;-82
2022/11/20 12:11:12;;;;;;;;;;;;;;;22.44;56.74;98910.91;5136375;27;19918;-82
2022/11/20 12:13:51;;;;;;;;;;;;;;;22.43;58.18;98909.22;5136192;27;19912;-82
2022/11/20 12:16:19;;;;;;;;;;;;;;;22.50;57.57;98902.38;5136357;27;20351;-82
2022/11/20 12:18:46;;;;;;;;;;;;;;;22.48;56.76;98893.59;5136028;27;20404;-82
2022/11/20 12:21:17;;;;;;;;;;;;;;;22.60;56.86;98896.28;5135237;27;19911;-84
2022/11/20 12:23:48;;;;;;;;;;;;;;;22.63;56.13;98901.44;5135467;27;19961;-85
2022/11/20 12:29:27;;;;;;;;;;;;;;;22.34;56.92;98900.03;5135614;27;19968;-81
2022/11/20 12:32:04;;;;;;;;;;;;;;;22.49;58.08;98895.31;5135457;27;19907;-86
2022/11/20 12:34:39;;;;;;;;;;;;;;;22.04;58.87;98905.84;5135433;27;19967;-85
2022/11/20 12:40:23;;;;;;;;;;;;;;;22.33;56.73;98894.75;5135674;27;19953;-86
2022/11/20 12:45:45;;;;;;;;;;;;;;;22.67;55.26;98884.94;5134933;27;19925;-84
2022/11/20 12:48:11;;;;;;;;;;;;;;;22.67;55.36;98892.16;5135282;27;19911;-85
2022/11/20 12:50:39;;;;;;;;;;;;;;;22.65;54.73;98892.28;5134980;27;20349;-85
2022/11/20 12:53:07;;;;;;;;;;;;;;;22.65;54.22;98888.75;5135624;27;19925;-87
2022/11/20 12:55:47;;;;;;;;;;;;;;;22.66;55.34;98904.75;5135357;27;19911;-85
2022/11/20 12:58:31;;;;;;;;;;;;;;;22.47;56.30;98888.34;5134703;27;19915;-86
2022/11/20 13:01:39;;;;;;;;;;;;;;;22.05;57.52;98890.59;5135033;27;19918;-85
2022/11/20 13:07:05;;;;;;;;;;;;;;;22.41;53.13;98884.28;5134836;27;19914;-84
2022/11/20 13:09:32;;;;;;;;;;;;;;;22.55;51.61;98880.53;5134344;27;19947;-84
2022/11/20 13:12:10;;;;;;;;;;;;;;;22.55;52.68;98899.34;5134526;27;20369;-84
2022/11/20 13:17:38;;;;;;;;;;;;;;;22.44;50.16;98902.00;5134930;27;19930;-83
2022/11/20 13:20:05;;;;;;;;;;;;;;;22.74;48.46;98901.47;5133562;27;19912;-85
2022/11/20 13:22:44;;;;;;;;;;;;;;;22.78;48.92;98908.31;5134345;27;20013;-86
2022/11/20 13:28:12;;;;;;;;;;;;;;;22.75;49.21;98905.84;5134420;27;19922;-84
2022/11/20 13:33:43;;;;;;;;;;;;;;;22.49;52.35;98914.13;5134316;27;19915;-84
2022/11/20 13:36:25;;;;;;;;;;;;;;;22.58;53.39;98912.53;5133878;27;19935;-85
2022/11/20 13:38:52;;;;;;;;;;;;;;;22.00;56.24;98918.66;5134296;27;19934;-84
2022/11/20 13:41:32;;;;;;;;;;;;;;;21.61;55.06;98930.50;5134324;27;19926;-87
2022/11/20 13:44:09;;;;;;;;;;;;;;;21.51;53.60;98935.69;5134346;27;20010;-82
2022/11/20 13:46:36;;;;;;;;;;;;;;;21.57;52.21;98931.69;5133795;27;20414;-84
2022/11/20 13:49:07;;;;;;;;;;;;;;;21.96;51.47;98938.63;5133823;27;19918;-83
2022/11/20 13:54:52;;;;;;;;;;;;;;;22.03;46.05;98936.38;5134001;27;19925;-83
2022/11/20 13:57:26;;;;;;;;;;;;;;;22.35;42.96;98936.66;5134314;27;19908;-85
2022/11/20 14:00:10;;;;;;;;;;;;;;;22.71;42.72;98929.44;5134222;27;20010;-84
2022/11/20 14:02:35;;;;;;;;;;;;;;;22.71;45.25;98936.66;5133722;27;19922;-82
2022/11/20 14:05:01;;;;;;;;;;;;;;;22.70;47.87;98930.41;5133592;27;19911;-83
2022/11/20 14:07:36;;;;;;;;;;;;;;;22.40;49.25;98943.50;5134210;27;19958;-83
2022/11/20 14:10:02;;;;;;;;;;;;;;;22.02;50.90;98948.06;5114727;27;20073;-83
2022/11/20 14:12:31;;;;;;;;;;;;;;;21.93;51.27;98954.13;5133681;27;19998;-83
2022/11/20 14:14:57;;;;;;;;;;;;;;;21.70;52.00;98971.91;5133769;27;19911;-83
2022/11/20 14:17:22;;;;;;;;;;;;;;;21.46;52.98;98986.94;5133275;27;19973;-83
2022/11/20 14:19:49;;;;;;;;;;;;;;;20.84;51.38;98963.59;5133407;27;19918;-83
2022/11/20 14:22:21;;;;;;;;;;;;;;;20.58;50.98;98960.00;5133394;27;19911;-83
2022/11/20 14:24:48;;;;;;;;;;;;;;;19.99;52.78;98961.19;5133590;27;19919;-82
2022/11/20 14:27:19;;;;;;;;;;;;;;;19.75;53.85;98966.28;5133130;28;20434;-84
2022/11/20 14:29:45;;;;;;;;;;;;;;;19.57;53.27;98967.47;5133622;28;19919;-85
2022/11/20 14:32:10;;;;;;;;;;;;;;;19.55;54.10;98974.75;5134561;27;19912;-86
2022/11/20 14:34:38;;;;;;;;;;;;;;;19.43;54.63;98977.25;5137927;27;19918;-86
2022/11/20 14:37:05;;;;;;;;;;;;;;;19.26;55.83;98982.75;5137991;27;20254;-88
2022/11/20 14:42:33;;;;;;;;;;;;;;;19.40;56.09;98976.56;5137612;27;19922;-94
2022/11/20 14:44:59;;;;;;;;;;;;;;;19.41;56.24;98983.63;5135278;27;19911;-90
2022/11/20 14:47:26;;;;;;;;;;;;;;;19.75;55.50;98986.84;5135858;27;19958;-87
2022/11/20 14:52:59;;;;;;;;;;;;;;;19.72;55.50;98998.59;5137501;27;19918;-89
2022/11/20 14:55:35;;;;;;;;;;;;;;;19.87;54.56;98991.44;5137418;27;19912;-90